createdAt,value
2019-01-19T00:00:09.674Z,9.30
2019-01-19T00:02:49.239Z,9.40
2019-01-19T00:06:07.112Z,9.40
2019-01-19T00:08:54.735Z,9.30
2019-01-19T00:12:07.037Z,9.30
2019-01-19T00:14:44.537Z,9.50
2019-01-19T00:17:53.302Z,9.50
2019-01-19T00:20:50.648Z,9.50
2019-01-19T00:23:51.331Z,9.60
2019-01-19T00:26:33.132Z,9.50
2019-01-19T00:29:35.099Z,9.60
2019-01-19T00:32:21.892Z,9.50
2019-01-19T00:35:17.611Z,9.50
2019-01-19T00:38:09.471Z,9.40
2019-01-19T00:41:27.652Z,9.30
2019-01-19T00:44:28.505Z,9.20
2019-01-19T00:47:40.440Z,9.20
2019-01-19T00:51:07.647Z,9.40
2019-01-19T00:53:44.845Z,9.50
2019-01-19T00:56:52.300Z,9.40
2019-01-19T00:59:27.002Z,9.40
2019-01-19T01:02:31.444Z,9.30
2019-01-19T01:05:28.112Z,9.30
2019-01-19T01:08:41.617Z,9.20
2019-01-19T01:11:25.794Z,9.30
2019-01-19T01:14:29.913Z,9.40
2019-01-19T01:17:26.591Z,9.40
2019-01-19T01:20:41.618Z,9.40
2019-01-19T01:23:57.678Z,9.40
2019-01-19T01:27:09.086Z,9.40
2019-01-19T01:30:04.823Z,9.50
2019-01-19T01:33:11.136Z,9.50
2019-01-19T01:36:18.221Z,9.40
2019-01-19T01:39:10.455Z,9.30
2019-01-19T01:42:31.396Z,9.30
2019-01-19T01:45:34.922Z,9.20
2019-01-19T01:48:34.840Z,9.10
2019-01-19T01:51:52.776Z,9.00
2019-01-19T01:55:10.537Z,9.00
2019-01-19T01:58:12.191Z,8.90
2019-01-19T02:00:54.113Z,8.90
2019-01-19T02:03:55.024Z,8.80
2019-01-19T02:07:19.015Z,8.80
2019-01-19T02:10:37.020Z,8.70
2019-01-19T02:13:29.282Z,8.80
2019-01-19T02:16:39.648Z,8.80
2019-01-19T02:19:44.017Z,8.80
2019-01-19T02:22:49.790Z,8.70
2019-01-19T02:25:54.323Z,8.70
2019-01-19T02:28:49.428Z,8.70
2019-01-19T02:31:45.766Z,8.60
2019-01-19T02:34:55.716Z,8.60
2019-01-19T02:37:57.817Z,8.50
2019-01-19T02:41:00.780Z,8.50
2019-01-19T02:44:18.421Z,8.50
2019-01-19T02:47:01.338Z,8.50
2019-01-19T02:50:20.830Z,8.40
2019-01-19T02:53:38.408Z,8.40
2019-01-19T02:56:31.395Z,8.50
2019-01-19T02:59:51.368Z,8.50
2019-01-19T03:03:02.074Z,8.50
2019-01-19T03:05:42.624Z,8.50
2019-01-19T03:08:48.941Z,8.60
2019-01-19T03:12:12.887Z,8.60
2019-01-19T03:15:06.477Z,8.60
2019-01-19T03:18:29.215Z,8.60
2019-01-19T03:21:40.572Z,8.70
2019-01-19T03:24:43.945Z,8.70
2019-01-19T03:27:37.566Z,8.70
2019-01-19T03:30:43.495Z,8.70
2019-01-19T03:33:53.114Z,8.70
2019-01-19T03:37:09.832Z,8.60
2019-01-19T03:40:39.568Z,8.60
2019-01-19T03:44:05.506Z,8.60
2019-01-19T03:47:32.425Z,8.60
2019-01-19T03:50:13.396Z,8.50
2019-01-19T03:53:31.322Z,8.40
2019-01-19T03:56:11.886Z,8.40
2019-01-19T03:58:59.912Z,8.60
2019-01-19T04:02:23.807Z,8.60
2019-01-19T04:05:32.410Z,8.50
2019-01-19T04:08:42.865Z,8.50
2019-01-19T04:11:44.070Z,8.40
2019-01-19T04:15:00.355Z,8.30
2019-01-19T04:18:15.257Z,8.40
2019-01-19T04:21:23.119Z,8.40
2019-01-19T04:23:58.654Z,8.40
2019-01-19T04:26:33.963Z,8.40
2019-01-19T04:29:04.991Z,8.40
2019-01-19T04:31:36.059Z,8.40
2019-01-19T04:34:07.359Z,8.40
2019-01-19T04:36:42.742Z,8.40
2019-01-19T04:39:15.143Z,8.40
2019-01-19T04:41:45.804Z,8.40
2019-01-19T04:44:20.705Z,8.50
2019-01-19T04:46:51.721Z,8.50
2019-01-19T04:49:23.031Z,8.50
2019-01-19T04:51:54.091Z,8.50
2019-01-19T04:54:25.275Z,8.50
2019-01-19T04:56:56.314Z,8.50
2019-01-19T04:59:27.158Z,8.50
2019-01-19T05:01:58.151Z,8.40
2019-01-19T05:04:29.304Z,8.40
2019-01-19T05:07:00.437Z,8.50
2019-01-19T05:09:32.251Z,8.50
2019-01-19T05:12:03.157Z,8.50
2019-01-19T05:14:34.675Z,8.50
2019-01-19T05:17:05.743Z,8.50
2019-01-19T05:19:36.520Z,8.30
2019-01-19T05:22:07.627Z,8.30
2019-01-19T05:24:42.238Z,8.30
2019-01-19T05:27:13.466Z,8.40
2019-01-19T05:29:44.156Z,8.40
2019-01-19T05:32:15.884Z,8.30
2019-01-19T05:34:47.185Z,8.30
2019-01-19T05:37:18.424Z,8.30
2019-01-19T05:39:49.240Z,8.30
2019-01-19T05:42:20.417Z,8.30
2019-01-19T05:44:51.434Z,8.30
2019-01-19T05:47:22.272Z,8.30
2019-01-19T05:49:53.485Z,8.30
2019-01-19T05:52:24.397Z,8.30
2019-01-19T05:54:55.531Z,8.30
2019-01-19T05:57:26.562Z,8.30
2019-01-19T06:00:04.235Z,8.30
2019-01-19T06:02:35.656Z,8.30
2019-01-19T06:05:07.189Z,8.30
2019-01-19T06:07:37.872Z,8.40
2019-01-19T06:10:10.644Z,8.40
2019-01-19T06:12:41.695Z,8.40
2019-01-19T06:15:14.261Z,8.40
2019-01-19T06:17:45.041Z,8.50
2019-01-19T06:20:16.889Z,8.50
2019-01-19T06:22:47.973Z,8.50
2019-01-19T06:25:19.119Z,8.50
2019-01-19T06:27:49.904Z,8.60
2019-01-19T06:30:24.660Z,8.60
2019-01-19T06:32:56.982Z,8.60
2019-01-19T06:35:43.520Z,8.60
2019-01-19T06:38:14.662Z,8.60
2019-01-19T06:40:46.001Z,8.70
2019-01-19T06:43:17.143Z,8.70
2019-01-19T06:45:48.181Z,8.70
2019-01-19T06:48:19.309Z,8.70
2019-01-19T06:50:50.379Z,8.80
2019-01-19T06:53:22.315Z,8.80
2019-01-19T06:55:53.075Z,8.80
2019-01-19T06:58:25.359Z,8.70
2019-01-19T07:01:00.003Z,8.60
2019-01-19T07:03:31.147Z,8.70
2019-01-19T07:06:02.310Z,8.60
2019-01-19T07:08:33.396Z,8.60
2019-01-19T07:11:04.786Z,8.60
2019-01-19T07:13:35.507Z,8.60
2019-01-19T07:16:06.592Z,8.50
2019-01-19T07:18:37.299Z,8.60
2019-01-19T07:21:09.029Z,8.50
2019-01-19T07:23:47.258Z,8.40
2019-01-19T07:26:18.750Z,8.40
2019-01-19T07:28:50.056Z,8.40
2019-01-19T07:31:22.194Z,8.40
2019-01-19T07:33:53.370Z,8.50
2019-01-19T07:36:24.893Z,8.50
2019-01-19T07:38:57.391Z,8.50
2019-01-19T07:41:28.735Z,8.50
2019-01-19T07:43:59.743Z,8.50
2019-01-19T07:46:31.909Z,8.50
2019-01-19T07:49:03.467Z,8.50
2019-01-19T07:51:35.153Z,8.60
2019-01-19T07:54:06.568Z,8.60
2019-01-19T07:56:37.925Z,8.70
2019-01-19T07:59:08.993Z,8.80
2019-01-19T08:01:40.003Z,9.00
2019-01-19T08:04:11.304Z,9.10
2019-01-19T08:06:42.387Z,9.10
2019-01-19T08:09:13.316Z,9.10
2019-01-19T08:11:44.212Z,9.10
2019-01-19T08:14:17.077Z,9.10
2019-01-19T08:16:48.191Z,9.30
2019-01-19T08:19:19.437Z,9.30
2019-01-19T08:21:50.466Z,9.30
2019-01-19T08:24:21.505Z,9.40
2019-01-19T08:26:55.938Z,9.60
2019-01-19T08:29:27.068Z,9.70
2019-01-19T08:31:58.322Z,9.90
2019-01-19T08:34:29.154Z,10.20
2019-01-19T08:37:00.446Z,10.20
2019-01-19T08:39:31.362Z,10.20
2019-01-19T08:42:02.534Z,10.30
2019-01-19T08:44:33.549Z,10.30
2019-01-19T08:47:06.771Z,10.20
2019-01-19T08:49:37.704Z,10.10
2019-01-19T08:52:08.775Z,10.10
2019-01-19T08:54:39.672Z,10.20
2019-01-19T08:57:10.813Z,10.30
2019-01-19T08:59:41.891Z,10.40
2019-01-19T09:02:13.070Z,10.50
2019-01-19T09:04:43.840Z,10.50
2019-01-19T09:07:15.227Z,10.60
2019-01-19T09:09:46.230Z,10.70
2019-01-19T09:12:17.465Z,10.80
2019-01-19T09:14:48.528Z,10.90
2019-01-19T09:17:19.566Z,11.10
2019-01-19T09:19:50.889Z,11.20
2019-01-19T09:22:21.973Z,11.30
2019-01-19T09:24:53.148Z,11.20
2019-01-19T09:27:24.398Z,11.10
2019-01-19T09:29:55.590Z,11.00
2019-01-19T09:32:27.215Z,10.90
2019-01-19T09:34:58.436Z,11.10
2019-01-19T09:37:29.650Z,11.10
2019-01-19T09:40:00.683Z,11.00
2019-01-19T09:42:34.023Z,11.00
2019-01-19T09:45:05.563Z,11.00
2019-01-19T09:47:36.602Z,11.00
2019-01-19T09:50:08.609Z,11.00
2019-01-19T09:52:39.727Z,11.00
2019-01-19T09:55:12.031Z,11.00
2019-01-19T09:57:42.850Z,11.00
2019-01-19T10:00:16.061Z,11.10
2019-01-19T10:02:47.482Z,11.30
2019-01-19T10:05:20.613Z,11.50
2019-01-19T10:07:52.105Z,11.50
2019-01-19T10:10:27.014Z,11.60
2019-01-19T10:13:00.442Z,11.70
2019-01-19T10:15:31.755Z,11.80
2019-01-19T10:18:03.226Z,11.90
2019-01-19T10:20:34.456Z,12.10
2019-01-19T10:23:05.766Z,12.00
2019-01-19T10:25:36.891Z,11.90
2019-01-19T10:28:08.288Z,11.90
2019-01-19T10:30:39.042Z,11.90
2019-01-19T10:33:11.142Z,12.10
2019-01-19T10:35:41.907Z,12.20
2019-01-19T10:38:15.065Z,12.20
2019-01-19T10:40:46.305Z,12.30
2019-01-19T10:43:17.707Z,12.20
2019-01-19T10:45:48.912Z,12.20
2019-01-19T10:48:20.516Z,12.20
2019-01-19T10:50:51.666Z,12.20
2019-01-19T10:53:22.847Z,12.20
2019-01-19T10:55:53.845Z,12.20
2019-01-19T10:58:25.206Z,12.20
2019-01-19T11:00:56.483Z,12.00
2019-01-19T11:03:27.798Z,12.10
2019-01-19T11:05:58.840Z,12.00
2019-01-19T11:08:36.192Z,11.90
2019-01-19T11:15:26.729Z,12.10
2019-01-19T11:17:57.952Z,11.80
2019-01-19T11:20:30.584Z,11.80
2019-01-19T11:23:02.533Z,11.90
2019-01-19T11:25:33.718Z,12.10
2019-01-19T11:28:05.301Z,12.30
2019-01-19T11:30:40.610Z,12.40
2019-01-19T11:33:12.139Z,12.40
2019-01-19T11:35:43.161Z,12.30
2019-01-19T11:38:20.222Z,12.30
2019-01-19T11:40:51.311Z,12.30
2019-01-19T11:43:22.629Z,12.50
2019-01-19T11:45:54.299Z,12.60
2019-01-19T11:48:25.483Z,12.60
2019-01-19T11:50:57.035Z,12.50
2019-01-19T11:53:27.952Z,12.50
2019-01-19T11:55:59.532Z,12.60
2019-01-19T11:58:31.014Z,12.70
2019-01-19T12:01:02.111Z,12.70
2019-01-19T12:03:34.025Z,12.80
2019-01-19T12:06:05.637Z,12.90
2019-01-19T12:08:36.750Z,12.60
2019-01-19T12:11:08.030Z,12.90
2019-01-19T12:13:38.828Z,13.00
2019-01-19T12:16:10.505Z,12.90
2019-01-19T12:18:41.691Z,13.00
2019-01-19T12:21:12.991Z,13.10
2019-01-19T12:23:44.167Z,13.00
2019-01-19T12:26:15.904Z,13.10
2019-01-19T12:28:46.966Z,13.20
2019-01-19T12:34:55.492Z,13.30
2019-01-19T12:37:31.847Z,13.30
2019-01-19T12:40:03.505Z,13.40
2019-01-19T12:42:34.471Z,13.20
2019-01-19T12:45:06.163Z,13.10
2019-01-19T12:47:37.182Z,12.70
2019-01-19T12:50:11.482Z,13.10
2019-01-19T12:52:42.074Z,13.20
2019-01-19T12:55:13.293Z,13.40
2019-01-19T12:57:45.575Z,13.20
2019-01-19T13:00:22.030Z,13.30
2019-01-19T13:02:54.723Z,13.20
2019-01-19T13:05:44.445Z,13.10
2019-01-19T13:08:17.821Z,13.00
2019-01-19T13:10:58.807Z,12.80
2019-01-19T13:13:36.926Z,12.90
2019-01-19T13:16:46.441Z,12.80
2019-01-19T13:20:05.112Z,12.80
2019-01-19T13:23:20.278Z,12.70
2019-01-19T13:26:26.084Z,12.50
2019-01-19T13:30:07.008Z,12.50
2019-01-19T13:33:13.779Z,12.50
2019-01-19T13:36:20.944Z,12.60
2019-01-19T13:39:18.738Z,12.60
2019-01-19T13:42:24.549Z,12.60
2019-01-19T13:45:47.323Z,12.60
2019-01-19T13:49:15.124Z,12.50
2019-01-19T13:52:00.373Z,12.60
2019-01-19T13:55:28.384Z,12.60
2019-01-19T13:58:08.892Z,12.60
2019-01-19T14:01:25.825Z,12.60
2019-01-19T14:04:36.103Z,12.60
2019-01-19T14:07:56.910Z,12.70
2019-01-19T14:11:23.415Z,12.70
2019-01-19T14:14:30.174Z,12.40
2019-01-19T14:17:38.445Z,12.40
2019-01-19T14:20:26.573Z,12.60
2019-01-19T14:23:18.520Z,12.50
2019-01-19T14:26:19.769Z,12.50
2019-01-19T14:29:41.946Z,12.50
2019-01-19T14:32:52.573Z,12.60
2019-01-19T14:36:10.614Z,12.60
2019-01-19T14:39:00.695Z,12.60
2019-01-19T14:42:14.198Z,12.40
2019-01-19T14:45:50.809Z,12.30
2019-01-19T14:49:11.879Z,12.30
2019-01-19T14:51:55.526Z,12.60
2019-01-19T14:55:03.935Z,12.70
2019-01-19T14:57:46.391Z,12.90
2019-01-19T15:00:49.906Z,13.00
2019-01-19T15:04:10.092Z,13.50
2019-01-19T15:07:23.958Z,13.30
2019-01-19T15:10:30.218Z,13.30
2019-01-19T15:13:50.298Z,13.50
2019-01-19T15:17:32.780Z,13.20
2019-01-19T15:21:00.260Z,12.90
2019-01-19T15:24:21.741Z,12.70
2019-01-19T15:27:31.728Z,12.50
2019-01-19T15:30:51.619Z,12.60
2019-01-19T15:34:17.480Z,12.60
2019-01-19T15:37:24.481Z,12.60
2019-01-19T15:40:31.954Z,12.50
2019-01-19T15:43:33.216Z,12.40
2019-01-19T15:46:55.159Z,12.40
2019-01-19T15:50:05.835Z,12.30
2019-01-19T15:52:54.564Z,12.10
2019-01-19T15:55:50.693Z,12.20
2019-01-19T15:58:36.269Z,12.10
2019-01-19T16:02:03.237Z,12.00
2019-01-19T16:05:01.443Z,11.90
2019-01-19T16:07:59.430Z,12.00
2019-01-19T16:11:04.650Z,12.00
2019-01-19T16:14:30.034Z,11.80
2019-01-19T16:17:26.921Z,11.80
2019-01-19T16:20:37.893Z,11.80
2019-01-19T16:23:18.728Z,11.90
2019-01-19T16:26:23.059Z,11.80
2019-01-19T16:29:05.231Z,11.90
2019-01-19T16:32:07.990Z,11.70
2019-01-19T16:35:25.657Z,11.80
2019-01-19T16:38:37.783Z,11.70
2019-01-19T16:41:44.584Z,11.50
2019-01-19T16:44:52.703Z,11.40
2019-01-19T16:47:42.200Z,11.40
2019-01-19T16:50:44.125Z,11.40
2019-01-19T16:53:52.287Z,11.30
2019-01-19T16:57:17.353Z,11.50
2019-01-19T17:00:29.984Z,11.40
2019-01-19T17:03:42.367Z,11.30
2019-01-19T17:06:53.678Z,11.30
2019-01-19T17:10:12.309Z,11.40
2019-01-19T17:13:22.471Z,11.50
2019-01-19T17:16:20.448Z,11.30
2019-01-19T17:19:21.970Z,11.20
2019-01-19T17:22:20.177Z,11.20
2019-01-19T17:25:22.720Z,11.20
2019-01-19T17:28:18.771Z,11.10
2019-01-19T17:31:26.828Z,11.10
2019-01-19T17:34:46.706Z,10.90
2019-01-19T17:37:42.933Z,10.90
2019-01-19T17:40:59.800Z,10.90
2019-01-19T17:44:13.859Z,11.60
2019-01-19T17:47:13.257Z,10.90
2019-01-19T17:50:25.870Z,11.00
2019-01-19T17:53:32.983Z,10.90
2019-01-19T17:56:27.653Z,11.00
2019-01-19T17:59:27.109Z,11.00
2019-01-19T18:02:10.760Z,11.00
2019-01-19T18:05:19.547Z,11.00
2019-01-19T18:08:32.699Z,10.90
2019-01-19T18:11:49.332Z,10.90
2019-01-19T18:15:07.176Z,10.90
2019-01-19T18:18:11.188Z,10.80
2019-01-19T18:21:30.893Z,10.90
2019-01-19T18:24:42.005Z,10.90
2019-01-19T18:27:48.118Z,10.80
2019-01-19T18:30:52.757Z,10.80
2019-01-19T18:33:49.836Z,10.80
2019-01-19T18:37:04.769Z,10.90
2019-01-19T18:40:01.547Z,10.90
2019-01-19T18:43:25.432Z,10.90
2019-01-19T18:46:44.844Z,10.90
2019-01-19T18:50:14.893Z,10.90
2019-01-19T18:53:32.130Z,10.90
2019-01-19T18:56:21.486Z,10.80
2019-01-19T18:59:39.998Z,10.80
2019-01-19T19:02:42.138Z,10.90
2019-01-19T19:06:09.619Z,10.80
2019-01-19T19:09:22.982Z,10.90
2019-01-19T19:12:50.175Z,11.00
2019-01-19T19:16:05.178Z,11.00
2019-01-19T19:19:13.263Z,11.00
2019-01-19T19:22:05.578Z,11.00
2019-01-19T19:25:23.996Z,10.90
2019-01-19T19:28:24.369Z,11.00
2019-01-19T19:31:44.347Z,10.90
2019-01-19T19:34:33.237Z,10.90
2019-01-19T19:37:40.153Z,10.90
2019-01-19T19:41:02.362Z,10.80
2019-01-19T19:44:04.923Z,10.80
2019-01-19T19:47:15.445Z,10.80
2019-01-19T19:50:06.131Z,10.80
2019-01-19T19:52:39.844Z,10.90
2019-01-19T19:55:10.020Z,10.90
2019-01-19T19:57:41.139Z,10.90
2019-01-19T20:00:12.783Z,10.90
2019-01-19T20:02:43.862Z,10.80
2019-01-19T20:05:15.589Z,10.90
2019-01-19T20:07:46.214Z,10.90
2019-01-19T20:10:17.647Z,10.90
2019-01-19T20:12:48.726Z,10.90
2019-01-19T20:15:20.175Z,10.90
2019-01-19T20:17:51.208Z,11.00
2019-01-19T20:20:22.383Z,10.90
2019-01-19T20:22:56.160Z,10.90
2019-01-19T20:25:27.423Z,10.90
2019-01-19T20:27:58.535Z,10.90
2019-01-19T20:30:29.807Z,10.90
2019-01-19T20:33:00.792Z,10.80
2019-01-19T20:35:31.851Z,10.80
2019-01-19T20:38:03.169Z,10.80
2019-01-19T20:40:34.288Z,10.80
2019-01-19T20:43:05.355Z,10.80
2019-01-19T20:45:37.114Z,10.70
2019-01-19T20:48:12.422Z,10.70
2019-01-19T20:50:43.046Z,10.70
2019-01-19T20:53:14.296Z,10.70
2019-01-19T20:55:45.279Z,10.70
2019-01-19T20:58:16.278Z,10.70
2019-01-19T21:00:47.258Z,10.70
2019-01-19T21:03:21.067Z,10.70
2019-01-19T21:05:52.187Z,10.80
2019-01-19T21:08:23.330Z,10.70
2019-01-19T21:10:54.340Z,10.80
2019-01-19T21:13:25.301Z,10.80
2019-01-19T21:15:56.601Z,10.80
2019-01-19T21:18:28.885Z,10.80
2019-01-19T21:21:00.041Z,10.80
2019-01-19T21:23:31.191Z,10.80
2019-01-19T21:26:02.219Z,10.80
2019-01-19T21:28:33.491Z,10.80
2019-01-19T21:31:04.631Z,10.80
2019-01-19T21:33:35.705Z,10.90
2019-01-19T21:36:06.986Z,10.90
2019-01-19T21:38:38.103Z,10.90
2019-01-19T21:41:09.244Z,10.90
2019-01-19T21:43:40.265Z,10.80
2019-01-19T21:46:12.611Z,10.80
2019-01-19T21:48:43.758Z,10.80
2019-01-19T22:03:10.527Z,10.90
2019-01-19T22:05:41.672Z,11.10
2019-01-19T22:08:12.653Z,11.10
2019-01-19T22:10:46.370Z,11.10
2019-01-19T22:13:16.434Z,11.10
2019-01-19T22:15:47.552Z,11.10
2019-01-19T22:18:19.265Z,11.20
2019-01-19T22:20:53.225Z,11.20
2019-01-19T22:23:24.818Z,11.20
2019-01-19T22:25:55.994Z,11.20
2019-01-19T22:28:27.432Z,11.20
2019-01-19T22:30:58.477Z,11.30
2019-01-19T22:33:29.504Z,11.30
2019-01-19T22:36:00.620Z,11.30
2019-01-19T22:38:31.711Z,11.40
2019-01-19T22:41:02.805Z,11.30
2019-01-19T22:43:34.968Z,11.40
2019-01-19T22:46:06.093Z,11.40
2019-01-19T22:48:37.181Z,11.50
2019-01-19T22:51:11.456Z,11.40
2019-01-19T22:53:40.799Z,11.40
2019-01-19T22:56:11.808Z,11.30
2019-01-19T22:58:42.907Z,11.20
2019-01-19T23:01:36.312Z,11.20
2019-01-19T23:04:07.645Z,11.10
2019-01-19T23:06:38.867Z,11.10
2019-01-19T23:09:13.513Z,11.10
2019-01-19T23:11:44.395Z,11.10
2019-01-19T23:14:15.440Z,11.20
2019-01-19T23:16:46.713Z,11.20
2019-01-19T23:19:18.281Z,11.20
2019-01-19T23:21:49.673Z,11.20
2019-01-19T23:24:20.368Z,11.20
2019-01-19T23:26:52.430Z,11.20
2019-01-19T23:29:23.483Z,11.20
2019-01-19T23:31:54.777Z,11.10
2019-01-19T23:34:25.964Z,11.10
2019-01-19T23:36:57.164Z,11.10
2019-01-19T23:39:27.915Z,11.10
2019-01-19T23:41:58.869Z,11.20
2019-01-19T23:44:31.396Z,11.20
2019-01-19T23:47:02.517Z,11.30
2019-01-19T23:49:33.478Z,11.50
2019-01-19T23:52:08.035Z,11.50
2019-01-19T23:54:39.075Z,11.40
2019-01-19T23:57:10.386Z,11.50
2019-01-19T23:59:41.406Z,11.40
